Terminal Aerodrome Forecast
Issued by NWS

Home | Current Version | Previous Version | Text Only | Print | Product List | Glossary On
Versions: 1 2 3 4 5 6 7 8 9 10 11 12 13 14 15 16 17 18 19 20 21 22 23
000
FTUS43 KICT 070817 AAA
TAFHUT
TAF AMD
KHUT 070817Z 0708/0806 18017G25KT P6SM OVC100
      TEMPO 0709/0712 BKN030
     FM071700 20015G22KT P6SM SCT020 BKN150
     FM072300 19017G22KT P6SM SCT040 BKN100
     FM080400 17015G22KT P6SM BKN030=

USA.gov is the U.S. government's official web portal to all federal, state and local government web resources and services.